createdAt,value
2018-03-24T00:00:59.243Z,1001.22
2018-03-24T00:01:59.259Z,1001.2
2018-03-24T00:02:59.277Z,1001.21
2018-03-24T00:03:59.288Z,1001.22
2018-03-24T00:04:59.302Z,1001.21
2018-03-24T00:05:59.318Z,1001.18
2018-03-24T00:06:59.333Z,1001.26
2018-03-24T00:07:59.348Z,1001.21
2018-03-24T00:08:59.365Z,1001.16
2018-03-24T00:09:59.378Z,1001.17
2018-03-24T00:10:59.394Z,1001.16
2018-03-24T00:11:59.408Z,1001.19
2018-03-24T00:12:59.424Z,1001.16
2018-03-24T00:13:59.439Z,1001.15
2018-03-24T00:15:59.469Z,1001.17
2018-03-24T00:16:59.484Z,1001.15
2018-03-24T00:17:59.499Z,1001.19
2018-03-24T00:18:59.515Z,1001.15
2018-03-24T00:19:59.529Z,1001.18
2018-03-24T00:20:59.544Z,1001.14
2018-03-24T00:21:59.558Z,1001.18
2018-03-24T00:22:59.573Z,1001.14
2018-03-24T00:23:59.588Z,1001.21
2018-03-24T00:24:59.602Z,1001.2
2018-03-24T00:25:59.619Z,1001.18
2018-03-24T00:26:59.633Z,1001.2
2018-03-24T00:27:59.648Z,1001.21
2018-03-24T00:28:59.663Z,1001.17
2018-03-24T00:29:59.678Z,1001.18
2018-03-24T00:30:59.694Z,1001.16
2018-03-24T00:31:59.708Z,1001.15
2018-03-24T00:32:59.729Z,1001.14
2018-03-24T00:33:59.738Z,1001.16
2018-03-24T00:34:59.753Z,1001.17
2018-03-24T00:35:59.768Z,1001.16
2018-03-24T00:36:59.783Z,1001.12
2018-03-24T00:37:59.798Z,1001.08
2018-03-24T00:38:59.811Z,1001.11
2018-03-24T00:39:59.826Z,1001.06
2018-03-24T00:40:59.843Z,1001.06
2018-03-24T00:41:59.859Z,1001.06
2018-03-24T00:42:59.921Z,1001.06
2018-03-24T00:43:59.887Z,1001.07
2018-03-24T00:44:59.903Z,1001.06
2018-03-24T00:45:59.916Z,1001.06
2018-03-24T00:47:59.952Z,1001.07
2018-03-24T00:48:59.962Z,1001.03
2018-03-24T00:49:59.976Z,1001.06
2018-03-24T00:50:59.990Z,1001.05
2018-03-24T00:52:00.013Z,1001.04
2018-03-24T00:53:00.027Z,1001.03
2018-03-24T00:54:00.036Z,1001.09
2018-03-24T00:55:00.051Z,1001.05
2018-03-24T00:56:00.066Z,1001.08
2018-03-24T00:57:00.139Z,1001.07
2018-03-24T00:58:00.096Z,1001.06
2018-03-24T00:59:00.116Z,1001.04
2018-03-24T01:00:00.127Z,1001.1
2018-03-24T01:01:00.139Z,1001.07
2018-03-24T01:02:00.158Z,1001.07
2018-03-24T01:04:00.185Z,1001.04
2018-03-24T01:05:00.198Z,1001.03
2018-03-24T01:06:00.218Z,1001
2018-03-24T01:07:00.230Z,1001.04
2018-03-24T01:08:00.243Z,1000.98
2018-03-24T01:09:00.258Z,1000.93
2018-03-24T01:10:00.274Z,1000.92
2018-03-24T01:11:00.288Z,1000.94
2018-03-24T01:12:00.302Z,1000.92
2018-03-24T01:13:00.317Z,1000.91
2018-03-24T01:14:00.332Z,1000.87
2018-03-24T01:15:00.348Z,1000.86
2018-03-24T01:16:00.362Z,1000.86
2018-03-24T01:17:00.376Z,1000.85
2018-03-24T01:18:00.392Z,1000.83
2018-03-24T01:20:00.421Z,1000.84
2018-03-24T01:21:00.436Z,1000.82
2018-03-24T01:22:00.451Z,1000.82
2018-03-24T01:23:00.466Z,1000.82
2018-03-24T01:24:00.482Z,1000.77
2018-03-24T01:25:00.496Z,1000.82
2018-03-24T01:26:00.510Z,1000.81
2018-03-24T01:27:00.524Z,1000.84
2018-03-24T01:28:00.539Z,1000.8
2018-03-24T01:29:00.554Z,1000.77
2018-03-24T01:30:00.569Z,1000.79
2018-03-24T01:31:00.584Z,1000.76
2018-03-24T01:32:00.599Z,1000.78
2018-03-24T01:33:00.613Z,1000.75
2018-03-24T01:34:00.628Z,1000.75
2018-03-24T01:36:00.656Z,1000.76
2018-03-24T01:37:00.673Z,1000.77
2018-03-24T01:38:00.687Z,1000.78
2018-03-24T01:39:00.701Z,1000.77
2018-03-24T01:40:00.717Z,1000.77
2018-03-24T01:41:00.730Z,1000.74
2018-03-24T01:42:00.746Z,1000.78
2018-03-24T01:43:00.767Z,1000.73
2018-03-24T01:44:00.876Z,1000.71
2018-03-24T01:45:00.790Z,1000.68
2018-03-24T01:46:00.805Z,1000.69
2018-03-24T01:47:00.820Z,1000.65
2018-03-24T01:48:00.835Z,1000.66
2018-03-24T01:49:00.851Z,1000.58
2018-03-24T01:51:00.880Z,1000.63
2018-03-24T01:52:00.994Z,1000.6
2018-03-24T01:53:00.910Z,1000.65
2018-03-24T01:54:00.925Z,1000.63
2018-03-24T01:55:00.939Z,1000.64
2018-03-24T01:56:00.954Z,1000.65
2018-03-24T01:57:00.967Z,1000.66
2018-03-24T01:58:00.984Z,1000.63
2018-03-24T01:59:00.998Z,1000.65
2018-03-24T02:00:01.013Z,1000.63
2018-03-24T02:01:01.028Z,1000.65
2018-03-24T02:02:01.043Z,1000.64
2018-03-24T02:03:01.059Z,1000.65
2018-03-24T02:04:01.072Z,1000.62
2018-03-24T02:05:01.087Z,1000.64
2018-03-24T02:06:01.102Z,1000.67
2018-03-24T02:07:01.116Z,1000.66
2018-03-24T02:08:01.132Z,1000.65
2018-03-24T02:09:01.154Z,1000.64
2018-03-24T02:10:01.160Z,1000.63
2018-03-24T02:11:01.178Z,1000.64
2018-03-24T02:12:01.191Z,1000.66
2018-03-24T02:13:01.207Z,1000.64
2018-03-24T02:14:01.221Z,1000.62
2018-03-24T02:15:01.234Z,1000.66
2018-03-24T02:16:01.250Z,1000.65
2018-03-24T02:17:01.265Z,1000.59
2018-03-24T02:18:01.279Z,1000.6
2018-03-24T02:19:01.294Z,1000.56
2018-03-24T02:20:01.309Z,1000.53
2018-03-24T02:21:01.323Z,1000.48
2018-03-24T02:23:01.353Z,1000.46
2018-03-24T02:24:01.369Z,1000.48
2018-03-24T02:25:01.382Z,1000.45
2018-03-24T02:26:01.398Z,1000.45
2018-03-24T02:27:01.413Z,1000.45
2018-03-24T02:28:01.428Z,1000.45
2018-03-24T02:29:01.442Z,1000.48
2018-03-24T02:30:01.458Z,1000.46
2018-03-24T02:31:01.472Z,1000.45
2018-03-24T02:32:01.489Z,1000.46
2018-03-24T02:33:01.504Z,1000.46
2018-03-24T02:34:01.516Z,1000.48
2018-03-24T02:35:01.531Z,1000.45
2018-03-24T02:36:01.647Z,1000.46
2018-03-24T02:37:01.560Z,1000.5
2018-03-24T02:39:01.592Z,1000.46
2018-03-24T02:40:01.605Z,1000.48
2018-03-24T02:41:01.620Z,1000.47
2018-03-24T02:42:01.635Z,1000.43
2018-03-24T02:43:01.648Z,1000.42
2018-03-24T02:44:01.674Z,1000.39
2018-03-24T02:45:01.685Z,1000.42
2018-03-24T02:46:01.697Z,1000.42
2018-03-24T02:47:01.708Z,1000.37
2018-03-24T02:48:01.725Z,1000.35
2018-03-24T02:49:01.740Z,1000.37
2018-03-24T02:50:01.756Z,1000.32
2018-03-24T02:51:01.767Z,1000.35
2018-03-24T02:52:01.785Z,1000.35
2018-03-24T02:53:01.798Z,1000.34
2018-03-24T02:55:01.827Z,1000.34
2018-03-24T02:56:01.842Z,1000.3
2018-03-24T02:57:01.857Z,1000.32
2018-03-24T02:58:01.871Z,1000.35
2018-03-24T02:59:01.889Z,1000.34
2018-03-24T03:00:01.903Z,1000.35
2018-03-24T03:01:01.915Z,1000.34
2018-03-24T03:02:01.941Z,1000.32
2018-03-24T03:03:01.945Z,1000.34
2018-03-24T03:04:01.960Z,1000.33
2018-03-24T03:05:01.974Z,1000.35
2018-03-24T03:06:01.990Z,1000.32
2018-03-24T03:07:02.005Z,1000.38
2018-03-24T03:08:02.019Z,1000.35
2018-03-24T03:09:02.044Z,1000.4
2018-03-24T03:11:02.063Z,1000.39
2018-03-24T03:12:02.079Z,1000.38
2018-03-24T03:13:02.092Z,1000.35
2018-03-24T03:14:02.107Z,1000.35
2018-03-24T03:15:02.122Z,1000.36
2018-03-24T03:16:02.135Z,1000.37
2018-03-24T03:17:02.151Z,1000.39
2018-03-24T03:18:02.167Z,1000.32
2018-03-24T03:19:02.182Z,1000.36
2018-03-24T03:20:02.195Z,1000.34
2018-03-24T03:21:02.209Z,1000.37
2018-03-24T03:22:02.226Z,1000.38
2018-03-24T03:23:02.239Z,1000.35
2018-03-24T03:24:02.255Z,1000.38
2018-03-24T03:26:02.284Z,1000.41
2018-03-24T03:27:02.325Z,1000.41
2018-03-24T03:28:02.384Z,1000.41
2018-03-24T03:29:02.328Z,1000.37
2018-03-24T03:30:02.344Z,1000.36
2018-03-24T03:31:02.358Z,1000.38
2018-03-24T03:32:02.372Z,1000.39
2018-03-24T03:33:02.416Z,1000.4
2018-03-24T03:34:02.401Z,1000.38
2018-03-24T03:35:02.418Z,1000.42
2018-03-24T03:36:02.431Z,1000.4
2018-03-24T03:37:02.447Z,1000.46
2018-03-24T03:38:02.460Z,1000.45
2018-03-24T03:39:02.475Z,1000.45
2018-03-24T03:40:02.492Z,1000.45
2018-03-24T03:41:02.509Z,1000.48
2018-03-24T03:42:02.519Z,1000.47
2018-03-24T03:43:02.535Z,1000.47
2018-03-24T03:44:02.550Z,1000.46
2018-03-24T03:45:02.563Z,1000.44
2018-03-24T03:46:02.578Z,1000.4
2018-03-24T03:47:02.593Z,1000.42
2018-03-24T03:48:02.607Z,1000.4
2018-03-24T03:49:02.622Z,1000.43
2018-03-24T03:50:02.637Z,1000.42
2018-03-24T03:51:02.652Z,1000.41
2018-03-24T03:52:02.667Z,1000.4
2018-03-24T03:53:02.683Z,1000.39
2018-03-24T03:54:02.696Z,1000.39
2018-03-24T03:55:02.712Z,1000.38
2018-03-24T03:56:02.725Z,1000.38
2018-03-24T03:58:02.755Z,1000.39
2018-03-24T03:59:02.770Z,1000.41
2018-03-24T04:00:02.784Z,1000.4
2018-03-24T04:01:02.803Z,1000.42
2018-03-24T04:02:02.815Z,1000.43
2018-03-24T04:03:02.837Z,1000.36
2018-03-24T04:04:02.842Z,1000.43
2018-03-24T04:05:02.858Z,1000.45
2018-03-24T04:06:02.873Z,1000.45
2018-03-24T04:07:02.887Z,1000.43
2018-03-24T04:08:02.902Z,1000.42
2018-03-24T04:09:02.917Z,1000.45
2018-03-24T04:10:02.933Z,1000.45
2018-03-24T04:11:02.945Z,1000.38
2018-03-24T04:12:02.961Z,1000.34
2018-03-24T04:14:02.992Z,1000.36
2018-03-24T04:15:03.007Z,1000.4
2018-03-24T04:16:03.019Z,1000.38
2018-03-24T04:17:03.034Z,1000.4
2018-03-24T04:18:03.058Z,1000.36
2018-03-24T04:19:03.065Z,1000.42
2018-03-24T04:20:03.079Z,1000.41
2018-03-24T04:21:03.094Z,1000.4
2018-03-24T04:22:03.108Z,1000.43
2018-03-24T04:23:03.128Z,1000.41
2018-03-24T04:24:03.138Z,1000.41
2018-03-24T04:25:03.153Z,1000.45
2018-03-24T04:26:03.167Z,1000.43
2018-03-24T04:27:03.182Z,1000.44
2018-03-24T04:28:03.198Z,1000.46
2018-03-24T04:30:03.226Z,1000.4
2018-03-24T04:31:03.241Z,1000.4
2018-03-24T04:32:03.256Z,1000.41
2018-03-24T04:33:03.270Z,1000.43
2018-03-24T04:34:03.285Z,1000.42
2018-03-24T04:35:03.302Z,1000.43
2018-03-24T04:36:03.314Z,1000.42
2018-03-24T04:37:03.329Z,1000.47
2018-03-24T04:38:03.344Z,1000.41
2018-03-24T04:39:03.359Z,1000.39
2018-03-24T04:40:03.372Z,1000.43
2018-03-24T04:41:03.388Z,1000.42
2018-03-24T04:42:03.402Z,1000.46
2018-03-24T04:43:03.418Z,1000.43
2018-03-24T04:44:03.432Z,1000.44
2018-03-24T04:46:03.461Z,1000.44
2018-03-24T04:47:03.476Z,1000.41
2018-03-24T04:48:03.491Z,1000.46
2018-03-24T04:49:03.506Z,1000.43
2018-03-24T04:50:03.520Z,1000.45
2018-03-24T04:51:03.534Z,1000.45
2018-03-24T04:52:03.550Z,1000.47
2018-03-24T04:53:03.565Z,1000.43
2018-03-24T04:54:03.579Z,1000.48
2018-03-24T04:55:03.594Z,1000.46
2018-03-24T04:56:03.608Z,1000.45
2018-03-24T04:57:03.623Z,1000.47
2018-03-24T04:58:03.638Z,1000.47
2018-03-24T04:59:03.652Z,1000.5
2018-03-24T05:01:03.682Z,1000.56
2018-03-24T05:02:03.696Z,1000.55
2018-03-24T05:03:03.710Z,1000.57
2018-03-24T05:04:03.726Z,1000.56
2018-03-24T05:05:03.742Z,1000.54
2018-03-24T05:06:03.755Z,1000.51
2018-03-24T05:07:03.768Z,1000.5
2018-03-24T05:08:03.785Z,1000.49
2018-03-24T05:09:03.799Z,1000.52
2018-03-24T05:10:03.814Z,1000.53
2018-03-24T05:11:03.829Z,1000.58
2018-03-24T05:12:03.843Z,1000.58
2018-03-24T05:13:03.857Z,1000.6
2018-03-24T05:14:03.872Z,1000.59
2018-03-24T05:15:03.887Z,1000.57
2018-03-24T05:16:03.911Z,1000.58
2018-03-24T05:17:03.916Z,1000.56
2018-03-24T05:18:03.931Z,1000.61
2018-03-24T05:19:03.946Z,1000.57
2018-03-24T05:20:03.960Z,1000.58
2018-03-24T05:21:03.974Z,1000.61
2018-03-24T05:22:03.990Z,1000.56
2018-03-24T05:23:04.005Z,1000.57
2018-03-24T05:24:04.019Z,1000.59
2018-03-24T05:25:04.034Z,1000.6
2018-03-24T05:26:04.049Z,1000.58
2018-03-24T05:27:04.064Z,1000.58
2018-03-24T05:28:04.081Z,1000.56
2018-03-24T05:29:04.092Z,1000.59
2018-03-24T05:30:04.108Z,1000.6
2018-03-24T05:31:04.121Z,1000.64
2018-03-24T05:33:04.151Z,1000.63
2018-03-24T05:34:04.167Z,1000.63
2018-03-24T05:35:04.180Z,1000.59
2018-03-24T05:36:04.195Z,1000.6
2018-03-24T05:37:04.210Z,1000.57
2018-03-24T05:38:04.325Z,1000.6
2018-03-24T05:39:04.302Z,1000.61
2018-03-24T05:40:04.254Z,1000.65
2018-03-24T05:41:04.269Z,1000.61
2018-03-24T05:42:04.283Z,1000.58
2018-03-24T05:43:04.298Z,1000.63
2018-03-24T05:44:04.312Z,1000.61
2018-03-24T05:45:04.328Z,1000.63
2018-03-24T05:46:04.341Z,1000.64
2018-03-24T05:47:04.356Z,1000.66
2018-03-24T05:49:04.386Z,1000.66
2018-03-24T05:50:04.401Z,1000.69
2018-03-24T05:51:04.419Z,1000.68
2018-03-24T05:52:04.430Z,1000.69
2018-03-24T05:53:04.447Z,1000.69
2018-03-24T05:54:04.461Z,1000.7
2018-03-24T05:55:04.475Z,1000.75
2018-03-24T05:56:04.491Z,1000.75
2018-03-24T05:57:04.504Z,1000.77
2018-03-24T05:58:04.519Z,1000.78
2018-03-24T05:59:04.534Z,1000.77
2018-03-24T06:00:04.548Z,1000.8
2018-03-24T06:01:04.563Z,1000.83
2018-03-24T06:02:04.578Z,1000.82
2018-03-24T06:03:04.592Z,1000.85
2018-03-24T06:05:04.622Z,1000.87
2018-03-24T06:06:04.637Z,1000.87
2018-03-24T06:07:04.653Z,1000.92
2018-03-24T06:08:04.666Z,1000.86
2018-03-24T06:09:04.681Z,1000.93
2018-03-24T06:10:04.696Z,1000.94
2018-03-24T06:11:04.711Z,1000.96
2018-03-24T06:12:04.730Z,1000.97
2018-03-24T06:13:04.741Z,1000.96
2018-03-24T06:14:04.762Z,1000.99
2018-03-24T06:15:04.770Z,1000.99
2018-03-24T06:16:04.791Z,1001
2018-03-24T06:17:04.800Z,1000.99
2018-03-24T06:18:04.815Z,1001.03
2018-03-24T06:19:04.829Z,1001.02
2018-03-24T06:21:04.860Z,1001.05
2018-03-24T06:22:04.917Z,1001.05
2018-03-24T06:23:04.889Z,1001.06
2018-03-24T06:24:04.905Z,1001.05
2018-03-24T06:25:04.920Z,1001.05
2018-03-24T06:26:04.934Z,1001.05
2018-03-24T06:27:04.949Z,1001
2018-03-24T06:28:04.964Z,1001.06
2018-03-24T06:29:04.979Z,1001.06
2018-03-24T06:30:04.994Z,1001.05
2018-03-24T06:31:05.011Z,1001.07
2018-03-24T06:32:05.024Z,1001.03
2018-03-24T06:33:05.039Z,1001.03
2018-03-24T06:34:05.054Z,1001.07
2018-03-24T06:36:05.088Z,1001.04
2018-03-24T06:37:05.099Z,1001.06
2018-03-24T06:38:05.121Z,1001.07
2018-03-24T06:39:05.130Z,1001.04
2018-03-24T06:40:05.144Z,1001.1
2018-03-24T06:41:05.159Z,1001.11
2018-03-24T06:42:05.174Z,1001.09
2018-03-24T06:43:05.190Z,1001.11
2018-03-24T06:44:05.202Z,1001.12
2018-03-24T06:45:05.219Z,1001.11
2018-03-24T06:46:05.233Z,1001.12
2018-03-24T06:47:05.255Z,1001.1
2018-03-24T06:48:05.272Z,1001.08
2018-03-24T06:49:05.279Z,1001.09
2018-03-24T06:50:05.294Z,1001.11
2018-03-24T06:51:05.310Z,1001.12
2018-03-24T06:52:05.424Z,1001.11
2018-03-24T06:53:05.339Z,1001.09
2018-03-24T06:54:05.354Z,1001.12
2018-03-24T06:55:05.369Z,1001.13
2018-03-24T06:56:05.384Z,1001.13
2018-03-24T06:57:05.400Z,1001.17
2018-03-24T06:58:05.416Z,1001.18
2018-03-24T06:59:05.429Z,1001.18
2018-03-24T07:00:05.445Z,1001.2
2018-03-24T07:01:05.461Z,1001.18
2018-03-24T07:02:05.476Z,1001.22
2018-03-24T07:03:05.491Z,1001.19
2018-03-24T07:04:05.505Z,1001.2
2018-03-24T07:05:05.521Z,1001.21
2018-03-24T07:06:05.538Z,1001.2
2018-03-24T07:08:05.567Z,1001.21
2018-03-24T07:09:05.583Z,1001.23
2018-03-24T07:10:05.597Z,1001.23
2018-03-24T07:11:05.613Z,1001.2
2018-03-24T07:12:05.629Z,1001.22
2018-03-24T07:13:05.646Z,1001.27
2018-03-24T07:14:05.660Z,1001.3
2018-03-24T07:15:05.773Z,1001.25
2018-03-24T07:16:05.690Z,1001.26
2018-03-24T07:17:05.705Z,1001.27
2018-03-24T07:18:05.720Z,1001.31
2018-03-24T07:19:05.736Z,1001.25
2018-03-24T07:20:05.751Z,1001.31
2018-03-24T07:21:05.766Z,1001.31
2018-03-24T07:22:05.782Z,1001.32
2018-03-24T07:24:05.813Z,1001.32
2018-03-24T07:25:05.828Z,1001.37
2018-03-24T07:26:05.847Z,1001.36
2018-03-24T07:27:05.858Z,1001.35
2018-03-24T07:28:05.873Z,1001.37
2018-03-24T07:29:05.888Z,1001.38
2018-03-24T07:30:05.909Z,1001.37
2018-03-24T07:31:05.920Z,1001.41
2018-03-24T07:32:05.936Z,1001.39
2018-03-24T07:33:05.951Z,1001.41
2018-03-24T07:34:05.966Z,1001.4
2018-03-24T07:35:05.981Z,1001.41
2018-03-24T07:36:05.996Z,1001.42
2018-03-24T07:37:06.011Z,1001.42
2018-03-24T07:38:06.029Z,1001.48
2018-03-24T07:40:06.059Z,1001.47
2018-03-24T07:41:06.081Z,1001.46
2018-03-24T07:42:06.090Z,1001.47
2018-03-24T07:43:06.105Z,1001.47
2018-03-24T07:44:06.121Z,1001.45
2018-03-24T07:45:06.137Z,1001.51
2018-03-24T07:46:06.155Z,1001.48
2018-03-24T07:47:06.167Z,1001.51
2018-03-24T07:48:06.182Z,1001.55
2018-03-24T07:49:06.201Z,1001.53
2018-03-24T07:50:06.214Z,1001.52
2018-03-24T07:51:06.230Z,1001.54
2018-03-24T07:52:06.244Z,1001.53
2018-03-24T07:53:06.261Z,1001.54
2018-03-24T07:54:06.278Z,1001.53
2018-03-24T07:56:06.308Z,1001.58
2018-03-24T07:57:06.324Z,1001.56
2018-03-24T07:58:06.339Z,1001.61
2018-03-24T07:59:06.356Z,1001.62
2018-03-24T08:00:06.371Z,1001.57
2018-03-24T08:01:06.387Z,1001.6
2018-03-24T08:02:06.402Z,1001.6
2018-03-24T08:03:06.419Z,1001.63
2018-03-24T08:04:06.435Z,1001.62
2018-03-24T08:05:06.455Z,1001.66
2018-03-24T08:06:06.470Z,1001.61
2018-03-24T08:07:06.482Z,1001.65
2018-03-24T08:08:06.497Z,1001.63
2018-03-24T08:09:06.521Z,1001.64
2018-03-24T08:11:06.547Z,1001.7
2018-03-24T08:12:06.562Z,1001.71
2018-03-24T08:13:06.577Z,1001.75
2018-03-24T08:14:06.595Z,1001.7
2018-03-24T08:15:06.619Z,1001.72
2018-03-24T08:16:06.628Z,1001.71
2018-03-24T08:17:06.643Z,1001.73
2018-03-24T08:18:06.660Z,1001.76
2018-03-24T08:19:06.675Z,1001.7
2018-03-24T08:20:06.692Z,1001.74
2018-03-24T08:21:06.708Z,1001.7
2018-03-24T08:22:06.724Z,1001.73
2018-03-24T08:23:06.740Z,1001.75
2018-03-24T08:24:06.756Z,1001.74
2018-03-24T08:25:06.773Z,1001.79
2018-03-24T08:26:06.789Z,1001.76
2018-03-24T08:27:06.804Z,1001.76
2018-03-24T08:28:06.821Z,1001.79
2018-03-24T08:29:06.836Z,1001.81
2018-03-24T08:30:06.853Z,1001.81
2018-03-24T08:31:06.870Z,1001.79
2018-03-24T08:32:06.886Z,1001.8
2018-03-24T08:33:06.908Z,1001.85
2018-03-24T08:34:06.917Z,1001.83
2018-03-24T08:35:06.935Z,1001.83
2018-03-24T08:36:06.952Z,1001.82
2018-03-24T08:37:06.967Z,1001.84
2018-03-24T08:38:06.984Z,1001.83
2018-03-24T08:39:07.000Z,1001.85
2018-03-24T08:40:07.017Z,1001.87
2018-03-24T08:41:07.033Z,1001.87
2018-03-24T08:43:07.066Z,1001.85
2018-03-24T08:44:07.083Z,1001.85
2018-03-24T08:45:07.097Z,1001.88
2018-03-24T08:46:07.118Z,1001.89
2018-03-24T08:47:07.132Z,1001.88
2018-03-24T08:48:07.150Z,1001.89
2018-03-24T08:49:07.168Z,1001.89
2018-03-24T08:50:07.189Z,1001.89
2018-03-24T08:51:07.198Z,1001.94
2018-03-24T08:52:07.217Z,1001.9
2018-03-24T08:53:07.230Z,1001.95
2018-03-24T08:54:07.248Z,1001.92
2018-03-24T08:55:07.264Z,1001.95
2018-03-24T08:56:07.281Z,1001.93
2018-03-24T08:57:07.299Z,1001.96
2018-03-24T08:59:07.332Z,1001.95
2018-03-24T09:00:07.348Z,1001.97
2018-03-24T09:01:07.365Z,1001.98
2018-03-24T09:02:07.382Z,1001.98
2018-03-24T09:03:07.397Z,1001.95
2018-03-24T09:04:07.415Z,1001.97
2018-03-24T09:05:07.432Z,1001.96
2018-03-24T09:06:07.449Z,1001.93
2018-03-24T09:07:07.465Z,1001.96
2018-03-24T09:08:07.484Z,1001.96
2018-03-24T09:09:07.499Z,1001.96
2018-03-24T09:10:07.517Z,1001.93
2018-03-24T09:11:07.533Z,1001.96
2018-03-24T09:12:07.550Z,1001.97
2018-03-24T09:13:07.572Z,1001.98
2018-03-24T09:15:07.640Z,1001.99
2018-03-24T09:16:07.619Z,1001.96
2018-03-24T09:17:07.635Z,1001.96
2018-03-24T09:18:07.655Z,1001.97
2018-03-24T09:19:07.668Z,1002.01
2018-03-24T09:20:07.686Z,1001.98
2018-03-24T09:21:07.703Z,1001.98
2018-03-24T09:22:07.719Z,1001.99
2018-03-24T09:23:07.736Z,1001.99
2018-03-24T09:24:07.753Z,1001.98
2018-03-24T09:25:07.769Z,1001.95
2018-03-24T09:26:07.788Z,1001.93
2018-03-24T09:27:07.805Z,1001.97
2018-03-24T09:28:07.822Z,1001.97
2018-03-24T09:29:07.838Z,1001.93
2018-03-24T09:31:07.873Z,1001.96
2018-03-24T09:32:07.891Z,1001.97
2018-03-24T09:33:07.907Z,1001.94
2018-03-24T09:34:07.925Z,1001.97
2018-03-24T09:35:07.943Z,1001.93
2018-03-24T09:36:07.961Z,1001.95
2018-03-24T09:37:07.976Z,1001.95
2018-03-24T09:38:07.994Z,1001.97
2018-03-24T09:39:08.011Z,1001.97
2018-03-24T09:40:08.027Z,1001.98
2018-03-24T09:41:08.045Z,1001.98
2018-03-24T09:42:08.063Z,1001.95
2018-03-24T09:43:08.084Z,1001.97
2018-03-24T09:44:08.099Z,1001.94
2018-03-24T09:46:08.134Z,1001.94
2018-03-24T09:47:08.150Z,1001.96
2018-03-24T09:48:08.169Z,1001.95
2018-03-24T09:49:08.185Z,1001.97
2018-03-24T09:50:08.205Z,1001.99
2018-03-24T09:51:08.220Z,1001.94
2018-03-24T09:52:08.237Z,1001.98
2018-03-24T09:53:08.255Z,1001.92
2018-03-24T09:54:08.271Z,1001.89
2018-03-24T09:55:08.289Z,1001.93
2018-03-24T09:56:08.307Z,1001.92
2018-03-24T09:57:08.324Z,1001.94
2018-03-24T09:58:08.442Z,1001.86
2018-03-24T09:59:08.359Z,1001.9
2018-03-24T10:00:08.377Z,1001.89
2018-03-24T10:01:08.395Z,1001.92
2018-03-24T10:02:08.412Z,1001.91
2018-03-24T10:03:08.429Z,1001.89
2018-03-24T10:04:08.447Z,1001.9
2018-03-24T10:05:08.464Z,1001.89
2018-03-24T10:06:08.483Z,1001.93
2018-03-24T10:07:08.501Z,1001.94
2018-03-24T10:08:08.519Z,1001.94
2018-03-24T10:09:08.537Z,1001.9
2018-03-24T10:10:08.554Z,1001.89
2018-03-24T10:11:08.573Z,1001.94
2018-03-24T10:12:08.591Z,1001.86
2018-03-24T10:13:08.608Z,1001.87
2018-03-24T10:14:08.625Z,1001.89
2018-03-24T10:15:08.645Z,1001.89
2018-03-24T10:16:08.662Z,1001.89
2018-03-24T10:18:08.700Z,1001.87
2018-03-24T10:19:08.718Z,1001.87
2018-03-24T10:20:08.735Z,1001.81
2018-03-24T10:21:08.754Z,1001.86
2018-03-24T10:22:08.771Z,1001.83
2018-03-24T10:23:08.795Z,1001.84
2018-03-24T10:24:08.809Z,1001.86
2018-03-24T10:25:08.828Z,1001.87
2018-03-24T10:26:08.845Z,1001.82
2018-03-24T10:27:08.863Z,1001.79
2018-03-24T10:28:08.884Z,1001.82
2018-03-24T10:29:08.902Z,1001.86
2018-03-24T10:30:08.920Z,1001.88
2018-03-24T10:31:08.939Z,1001.88
2018-03-24T10:32:08.958Z,1001.88
2018-03-24T10:34:09.001Z,1001.88
2018-03-24T10:35:09.014Z,1001.82
2018-03-24T10:36:09.032Z,1001.87
2018-03-24T10:37:09.052Z,1001.82
2018-03-24T10:38:09.070Z,1001.83
2018-03-24T10:39:09.090Z,1001.87
2018-03-24T10:40:09.109Z,1001.79
2018-03-24T10:41:09.128Z,1001.82
2018-03-24T10:42:09.146Z,1001.83
2018-03-24T10:43:09.166Z,1001.79
2018-03-24T10:44:09.185Z,1001.8
2018-03-24T10:45:09.204Z,1001.79
2018-03-24T10:46:09.222Z,1001.81
2018-03-24T10:47:09.242Z,1001.76
2018-03-24T10:48:09.274Z,1001.78
2018-03-24T10:50:09.299Z,1001.8
2018-03-24T10:51:09.317Z,1001.78
2018-03-24T10:52:09.341Z,1001.76
2018-03-24T10:53:09.355Z,1001.81
2018-03-24T10:54:09.375Z,1001.77
2018-03-24T10:55:09.397Z,1001.76
2018-03-24T10:56:09.413Z,1001.77
2018-03-24T10:57:09.431Z,1001.72
2018-03-24T10:58:09.451Z,1001.77
2018-03-24T10:59:09.470Z,1001.75
2018-03-24T11:00:09.488Z,1001.73
2018-03-24T11:01:09.507Z,1001.74
2018-03-24T11:02:09.526Z,1001.68
2018-03-24T11:03:09.544Z,1001.71
2018-03-24T11:04:09.572Z,1001.69
2018-03-24T11:06:09.601Z,1001.74
2018-03-24T11:07:09.621Z,1001.71
2018-03-24T11:08:09.639Z,1001.73
2018-03-24T11:09:09.658Z,1001.75
2018-03-24T11:10:09.676Z,1001.72
2018-03-24T11:11:09.695Z,1001.73
2018-03-24T11:12:09.714Z,1001.68
2018-03-24T11:13:09.734Z,1001.73
2018-03-24T11:14:09.751Z,1001.74
2018-03-24T11:15:09.769Z,1001.76
2018-03-24T11:16:09.796Z,1001.76
2018-03-24T11:17:09.808Z,1001.76
2018-03-24T11:18:09.826Z,1001.73
2018-03-24T11:19:09.846Z,1001.76
2018-03-24T11:21:09.884Z,1001.74
2018-03-24T11:22:09.902Z,1001.72
2018-03-24T11:23:09.920Z,1001.73
2018-03-24T11:24:09.939Z,1001.73
2018-03-24T11:25:09.958Z,1001.74
2018-03-24T11:26:09.975Z,1001.72
2018-03-24T11:27:09.995Z,1001.73
2018-03-24T11:28:10.014Z,1001.68
2018-03-24T11:29:10.035Z,1001.7
2018-03-24T11:30:10.058Z,1001.68
2018-03-24T11:31:10.069Z,1001.69
2018-03-24T11:32:10.089Z,1001.64
2018-03-24T11:33:10.106Z,1001.63
2018-03-24T11:34:10.124Z,1001.6
2018-03-24T11:35:10.143Z,1001.66
2018-03-24T11:36:10.162Z,1001.64
2018-03-24T11:37:10.180Z,1001.65
2018-03-24T11:38:10.199Z,1001.68
2018-03-24T11:39:10.218Z,1001.71
2018-03-24T11:40:10.236Z,1001.68
2018-03-24T11:41:10.255Z,1001.73
2018-03-24T11:42:10.280Z,1001.7
2018-03-24T11:43:10.293Z,1001.72
2018-03-24T11:44:10.311Z,1001.75
2018-03-24T11:45:10.330Z,1001.75
2018-03-24T11:46:10.349Z,1001.76
2018-03-24T11:47:10.368Z,1001.76
2018-03-24T11:48:10.386Z,1001.77
2018-03-24T11:49:10.405Z,1001.76
2018-03-24T11:50:10.457Z,1001.77
2018-03-24T11:51:10.442Z,1001.74
2018-03-24T11:53:10.480Z,1001.74
2018-03-24T11:54:10.499Z,1001.69
2018-03-24T11:55:10.517Z,1001.72
2018-03-24T11:56:10.596Z,1001.71
2018-03-24T11:57:10.555Z,1001.8
2018-03-24T11:58:10.574Z,1001.74
2018-03-24T11:59:10.649Z,1001.67
2018-03-24T12:00:10.611Z,1001.68
2018-03-24T12:01:10.632Z,1001.68
2018-03-24T12:02:10.656Z,1001.66
2018-03-24T12:03:10.668Z,1001.69
2018-03-24T12:04:10.688Z,1001.67
2018-03-24T12:05:10.706Z,1001.68
2018-03-24T12:06:10.725Z,1001.71
2018-03-24T12:07:10.745Z,1001.66
2018-03-24T12:09:10.784Z,1001.67
2018-03-24T12:10:10.802Z,1001.65
2018-03-24T12:11:10.821Z,1001.62
2018-03-24T12:12:10.941Z,1001.64
2018-03-24T12:13:10.867Z,1001.63
2018-03-24T12:14:10.881Z,1001.66
2018-03-24T12:15:10.898Z,1001.64
2018-03-24T12:16:10.918Z,1001.64
2018-03-24T12:17:10.936Z,1001.64
2018-03-24T12:18:10.956Z,1001.6
2018-03-24T12:19:10.976Z,1001.57
2018-03-24T12:20:10.995Z,1001.59
2018-03-24T12:21:11.014Z,1001.62
2018-03-24T12:22:11.100Z,1001.61
2018-03-24T12:23:11.054Z,1001.59
2018-03-24T12:25:11.092Z,1001.58
2018-03-24T12:26:11.111Z,1001.58
2018-03-24T12:27:11.132Z,1001.57
2018-03-24T12:28:11.152Z,1001.64
2018-03-24T12:29:11.190Z,1001.59
2018-03-24T12:30:11.191Z,1001.61
2018-03-24T12:31:11.210Z,1001.58
2018-03-24T12:32:11.229Z,1001.61
2018-03-24T12:33:11.249Z,1001.62
2018-03-24T12:34:11.269Z,1001.6
2018-03-24T12:35:11.288Z,1001.55
2018-03-24T12:36:11.307Z,1001.57
2018-03-24T12:37:11.327Z,1001.55
2018-03-24T12:38:11.348Z,1001.57
2018-03-24T12:39:11.367Z,1001.59
2018-03-24T12:41:11.407Z,1001.58
2018-03-24T12:42:11.426Z,1001.55
2018-03-24T12:43:11.538Z,1001.6
2018-03-24T12:44:11.466Z,1001.53
2018-03-24T12:45:11.486Z,1001.58
2018-03-24T12:46:11.505Z,1001.58
2018-03-24T12:47:11.525Z,1001.59
2018-03-24T12:48:11.545Z,1001.55